MSC Annamaria — H3HN — position and weather

sailwx.info

Track history (hours):
 
Tides and Currents Weather Stations Pressure Air Temp Water Temp Dewpoint Dewpoint Depression Visibility Wind Speed Wind Dir Waves Ship Positions

MSC Annamaria

Last reported at 2017-Aug-20 05:30 UTC. Time now 2017-Aug-20 05:55 UTC.
Position N 38°27' E 015°54'.

Length 188 m; draft 7 m.

Type: Cargo ship. MMSI: 353852000.

Date/timePositionNaut miles runAvg speedWind from/ knotsBaromVisibWave heightAir tempDewpointWater temp
2017-Aug-20 05:30N 38°27' E 015°54'0 0.0
2017-Aug-20 04:59N 38°27' E 015°54'0 0.0
2017-Aug-20 04:29N 38°27' E 015°54'0 0.0
2017-Aug-20 03:39N 38°27' E 015°54'0 0.0
2017-Aug-20 03:24N 38°27' E 015°54'0 0.0
2017-Aug-20 02:51N 38°27' E 015°54'0 0.0
2017-Aug-20 02:30N 38°27' E 015°54'0 0.0
2017-Aug-20 01:59N 38°27' E 015°54'0 0.0
2017-Aug-20 01:29N 38°27' E 015°54'0 0.0
2017-Aug-20 00:56N 38°27' E 015°54'0 0.0
2017-Aug-20 00:17N 38°27' E 015°54'0 0.0
2017-Aug-20 00:00N 38°27' E 015°54'0 0.0
2017-Aug-19 23:28N 38°27' E 015°54'0 0.0
2017-Aug-19 22:58N 38°27' E 015°54'0 0.0
2017-Aug-19 22:30N 38°27' E 015°54'0 0.0
2017-Aug-19 21:53N 38°27' E 015°54'0 0.0
2017-Aug-19 21:29N 38°27' E 015°54'0 0.0
2017-Aug-19 20:58N 38°27' E 015°54'0 0.0
2017-Aug-19 20:24N 38°27' E 015°54'0 0.0
2017-Aug-19 20:00N 38°27' E 015°54'0 0.0
2017-Aug-19 19:28N 38°27' E 015°54'0 0.0
2017-Aug-19 18:59N 38°27' E 015°54'0 0.0
2017-Aug-19 18:24N 38°27' E 015°54'0 0.0
2017-Aug-19 18:00N 38°27' E 015°54'0 0.0
2017-Aug-19 17:28N 38°27' E 015°54'0 0.0
2017-Aug-19 16:58N 38°27' E 015°54'0 0.0
2017-Aug-19 16:27N 38°27' E 015°54'0 0.0
2017-Aug-19 15:58N 38°27' E 015°54'0 0.0
2017-Aug-19 15:28N 38°27' E 015°54'0 0.0
2017-Aug-19 15:00N 38°27' E 015°54'0 0.0
2017-Aug-19 14:00N 38°27' E 015°54'0 0.7
2017-Aug-19 13:30N 38°27' E 015°54'2 4.8
2017-Aug-19 13:01N 38°27' E 015°51'5 9.8
2017-Aug-19 12:30N 38°29' E 015°45'1 1.8
2017-Aug-19 12:01N 38°29' E 015°44'0 0.0
2017-Aug-19 11:30N 38°29' E 015°44'0 0.1
2017-Aug-19 11:00N 38°29' E 015°44'0 0.2
2017-Aug-19 10:30N 38°29' E 015°44'0 0.2
2017-Aug-19 10:00N 38°29' E 015°44'0 0.2
2017-Aug-19 09:30N 38°29' E 015°45'0 0.2
2017-Aug-19 09:00N 38°29' E 015°45'0 0.2
2017-Aug-19 08:30N 38°29' E 015°45'0 0.1
2017-Aug-19 08:00N 38°29' E 015°45'0 0.1
2017-Aug-19 07:30N 38°29' E 015°45'0 0.2
2017-Aug-19 07:00N 38°29' E 015°45'0 0.4
2017-Aug-19 06:30N 38°28' E 015°45'510.5
2017-Aug-19 06:00N 38°23' E 015°44'713.5
2017-Aug-19 05:30N 38°17' E 015°42'611.2
2017-Aug-19 05:01N 38°13' E 015°37'713.2
2017-Aug-19 04:30N 38°06' E 015°36'713.7
2017-Aug-19 04:01N 37°59' E 015°36'713.8
2017-Aug-19 03:30N 37°53' E 015°40'714.6
2017-Aug-19 03:00N 37°51' E 015°49'714.8
2017-Aug-19 02:31N 37°49' E 015°58'5513.6
2017-Aug-18 22:29N 37°34' E 017°05'1013.8
2017-Aug-18 21:45N 37°31' E 017°17'914.2
2017-Aug-18 21:07N 37°29' E 017°28'2713.7
2017-Aug-18 19:07N 37°22' E 018°01'413.6
2017-Aug-18 18:48N 37°20' E 018°06'25412.6
2017-Aug-17 22:34N 36°47' E 023°22'714.0
2017-Aug-17 22:06N 36°54' E 023°23'114.0
2017-Aug-17 22:00N 36°55' E 023°23'2713.6
2017-Aug-17 20:01N 37°19' E 023°39'012.9
2017-Aug-17 20:00N 37°19' E 023°39'713.1
2017-Aug-17 19:30N 37°25' E 023°40'713.8
2017-Aug-17 19:00N 37°32' E 023°42'713.6
2017-Aug-17 18:30N 37°39' E 023°43'714.3
2017-Aug-17 18:00N 37°45' E 023°39'612.9
2017-Aug-17 17:31N 37°50' E 023°33'2 3.1
2017-Aug-17 17:01N 37°51' E 023°32'0 0.2
2017-Aug-17 16:25N 37°51' E 023°32'0 0.0
2017-Aug-17 15:58N 37°51' E 023°32'0 0.0
2017-Aug-17 15:28N 37°51' E 023°32'0 0.0
2017-Aug-17 14:53N 37°51' E 023°32'0 0.1
2017-Aug-17 14:28N 37°51' E 023°31'0 0.1
2017-Aug-17 13:58N 37°51' E 023°32'0 0.0
2017-Aug-17 13:30N 37°51' E 023°32'0 0.0
2017-Aug-17 12:59N 37°51' E 023°32'0 0.0
2017-Aug-17 12:25N 37°51' E 023°32'0 0.0
2017-Aug-17 11:59N 37°51' E 023°31'0 0.1
2017-Aug-17 11:30N 37°51' E 023°32'0 0.1
2017-Aug-17 10:58N 37°51' E 023°32'0 0.0
2017-Aug-17 10:30N 37°51' E 023°31'0 0.0
2017-Aug-17 09:59N 37°51' E 023°31'0 0.1
2017-Aug-17 09:26N 37°51' E 023°32'0 0.1
2017-Aug-17 08:59N 37°51' E 023°31'0 0.0
2017-Aug-17 08:30N 37°51' E 023°31'0 0.1
2017-Aug-17 08:00N 37°51' E 023°32'0 0.0
2017-Aug-17 07:29N 37°51' E 023°32'0 0.0
2017-Aug-17 06:59N 37°51' E 023°32'0 0.4
2017-Aug-17 06:31N 37°51' E 023°32'2 4.6
2017-Aug-17 06:01N 37°51' E 023°35'5 9.2
2017-Aug-17 05:31N 37°49' E 023°40'713.5
2017-Aug-17 05:01N 37°43' E 023°44'612.7
2017-Aug-17 04:31N 37°39' E 023°50'1013.4
2017-Aug-17 03:46N 37°37' E 024°02'413.6
2017-Aug-17 03:27N 37°38' E 024°08'914.4
2017-Aug-17 02:49N 37°43' E 024°17'  
2017-Aug-13 18:10N 41°30' E 029°05'0 1.1
2017-Aug-13 17:50N 41°30' E 029°04'0 1.0
2017-Aug-13 17:30N 41°30' E 029°04'2 4.8
2017-Aug-13 17:00N 41°29' E 029°06'4 6.9
2017-Aug-13 16:26N 41°27' E 029°11'1 1.1
2017-Aug-13 15:51N 41°28' E 029°10'0 1.1
2017-Aug-13 15:30N 41°28' E 029°10'1 1.1
2017-Aug-13 15:00N 41°28' E 029°09'1 1.0
2017-Aug-13 14:30N 41°28' E 029°09'0 1.0
2017-Aug-13 14:00N 41°28' E 029°08'0 0.8
2017-Aug-13 13:30N 41°28' E 029°07'0 0.7
2017-Aug-13 13:00N 41°29' E 029°07'1 0.2
2017-Aug-13 06:38N 41°30' E 029°07'0 0.8
2017-Aug-13 06:30N 41°30' E 029°07'1 0.8
2017-Aug-13 05:52N 41°30' E 029°07'0 0.8
2017-Aug-13 05:31N 41°30' E 029°07'4 0.7
2017-Aug-13 00:19N 41°33' E 029°11'0 1.0
2017-Aug-13 00:00N 41°33' E 029°11'1 0.8
2017-Aug-12 22:44N 41°33' E 029°09'0 0.7
2017-Aug-12 22:29N 41°33' E 029°09'1 0.5
2017-Aug-12 20:49N 41°33' E 029°08'1 0.4
2017-Aug-12 18:41N 41°32' E 029°08'0 0.5
2017-Aug-12 18:26N 41°32' E 029°08'0 0.6
2017-Aug-12 18:00N 41°32' E 029°08'4 7.3
2017-Aug-12 17:30N 41°30' E 029°04'1 1.7
2017-Aug-12 17:00N 41°29' E 029°03'0 0.4
2017-Aug-12 16:30N 41°29' E 029°04'0 0.5
2017-Aug-12 16:00N 41°29' E 029°04'0 0.5
2017-Aug-12 15:30N 41°29' E 029°04'13 2.9
2017-Aug-12 10:50N 41°28' E 029°22'2812.5
2017-Aug-12 08:35N 41°33' E 029°59'112.8
2017-Aug-12 08:30N 41°33' E 030°00'612.8
2017-Aug-12 08:00N 41°35' E 030°09'612.8
2017-Aug-12 07:30N 41°37' E 030°17'612.6
2017-Aug-12 07:00N 41°39' E 030°25'612.5
2017-Aug-12 06:30N 41°41' E 030°33'612.4
2017-Aug-12 06:00N 41°42' E 030°41'612.4
2017-Aug-12 05:30N 41°44' E 030°49'712.4
2017-Aug-12 04:58N 41°46' E 030°57'613.7
2017-Aug-12 04:30N 41°48' E 031°05'713.7
2017-Aug-12 04:00N 41°50' E 031°14'612.4
2017-Aug-12 03:30N 41°52' E 031°22'1812.4
2017-Aug-12 02:02N 41°57' E 031°45'312.3
2017-Aug-12 01:46N 41°58' E 031°50'312.3
2017-Aug-12 01:30N 41°59' E 031°54'612.2
2017-Aug-12 01:00N 42°01' E 032°02'712.2
2017-Aug-12 00:28N 42°03' E 032°10'1012.2
2017-Aug-11 23:36N 42°06' E 032°24'112.1
2017-Aug-11 23:30N 42°06' E 032°25'  
Track history (hours):
 
Tides and Currents Weather Stations Pressure Air Temp Water Temp Dewpoint Dewpoint Depression Visibility Wind Speed Wind Dir Waves Ship Positions

MSC Annamaria

Last reported at 2017-Aug-20 05:30 UTC. Time now 2017-Aug-20 05:55 UTC.
Position N 38°27' E 015°54'.

Length 188 m; draft 7 m.

Type: Cargo ship. MMSI: 353852000.

Date/timePositionNaut miles runAvg speedWind from/ knotsBaromVisibWave heightAir tempDewpointWater temp
2017-Aug-20 05:30N 38°27' E 015°54'0 0.0
2017-Aug-20 04:59N 38°27' E 015°54'0 0.0
2017-Aug-20 04:29N 38°27' E 015°54'0 0.0
2017-Aug-20 03:39N 38°27' E 015°54'0 0.0
2017-Aug-20 03:24N 38°27' E 015°54'0 0.0
2017-Aug-20 02:51N 38°27' E 015°54'0 0.0
2017-Aug-20 02:30N 38°27' E 015°54'0 0.0
2017-Aug-20 01:59N 38°27' E 015°54'0 0.0
2017-Aug-20 01:29N 38°27' E 015°54'0 0.0
2017-Aug-20 00:56N 38°27' E 015°54'0 0.0
2017-Aug-20 00:17N 38°27' E 015°54'0 0.0
2017-Aug-20 00:00N 38°27' E 015°54'0 0.0
2017-Aug-19 23:28N 38°27' E 015°54'0 0.0
2017-Aug-19 22:58N 38°27' E 015°54'0 0.0
2017-Aug-19 22:30N 38°27' E 015°54'0 0.0
2017-Aug-19 21:53N 38°27' E 015°54'0 0.0
2017-Aug-19 21:29N 38°27' E 015°54'0 0.0
2017-Aug-19 20:58N 38°27' E 015°54'0 0.0
2017-Aug-19 20:24N 38°27' E 015°54'0 0.0
2017-Aug-19 20:00N 38°27' E 015°54'0 0.0
2017-Aug-19 19:28N 38°27' E 015°54'0 0.0
2017-Aug-19 18:59N 38°27' E 015°54'0 0.0
2017-Aug-19 18:24N 38°27' E 015°54'0 0.0
2017-Aug-19 18:00N 38°27' E 015°54'0 0.0
2017-Aug-19 17:28N 38°27' E 015°54'0 0.0
2017-Aug-19 16:58N 38°27' E 015°54'0 0.0
2017-Aug-19 16:27N 38°27' E 015°54'0 0.0
2017-Aug-19 15:58N 38°27' E 015°54'0 0.0
2017-Aug-19 15:28N 38°27' E 015°54'0 0.0
2017-Aug-19 15:00N 38°27' E 015°54'0 0.0
2017-Aug-19 14:00N 38°27' E 015°54'0 0.7
2017-Aug-19 13:30N 38°27' E 015°54'2 4.8
2017-Aug-19 13:01N 38°27' E 015°51'5 9.8
2017-Aug-19 12:30N 38°29' E 015°45'1 1.8
2017-Aug-19 12:01N 38°29' E 015°44'0 0.0
2017-Aug-19 11:30N 38°29' E 015°44'0 0.1
2017-Aug-19 11:00N 38°29' E 015°44'0 0.2
2017-Aug-19 10:30N 38°29' E 015°44'0 0.2
2017-Aug-19 10:00N 38°29' E 015°44'0 0.2
2017-Aug-19 09:30N 38°29' E 015°45'0 0.2
2017-Aug-19 09:00N 38°29' E 015°45'0 0.2
2017-Aug-19 08:30N 38°29' E 015°45'0 0.1
2017-Aug-19 08:00N 38°29' E 015°45'0 0.1
2017-Aug-19 07:30N 38°29' E 015°45'0 0.2
2017-Aug-19 07:00N 38°29' E 015°45'0 0.4
2017-Aug-19 06:30N 38°28' E 015°45'510.5
2017-Aug-19 06:00N 38°23' E 015°44'713.5
2017-Aug-19 05:30N 38°17' E 015°42'611.2
2017-Aug-19 05:01N 38°13' E 015°37'713.2
2017-Aug-19 04:30N 38°06' E 015°36'713.7
2017-Aug-19 04:01N 37°59' E 015°36'713.8
2017-Aug-19 03:30N 37°53' E 015°40'714.6
2017-Aug-19 03:00N 37°51' E 015°49'714.8
2017-Aug-19 02:31N 37°49' E 015°58'5513.6
2017-Aug-18 22:29N 37°34' E 017°05'1013.8
2017-Aug-18 21:45N 37°31' E 017°17'914.2
2017-Aug-18 21:07N 37°29' E 017°28'2713.7
2017-Aug-18 19:07N 37°22' E 018°01'413.6
2017-Aug-18 18:48N 37°20' E 018°06'25412.6
2017-Aug-17 22:34N 36°47' E 023°22'714.0
2017-Aug-17 22:06N 36°54' E 023°23'114.0
2017-Aug-17 22:00N 36°55' E 023°23'2713.6
2017-Aug-17 20:01N 37°19' E 023°39'012.9
2017-Aug-17 20:00N 37°19' E 023°39'713.1
2017-Aug-17 19:30N 37°25' E 023°40'713.8
2017-Aug-17 19:00N 37°32' E 023°42'713.6
2017-Aug-17 18:30N 37°39' E 023°43'714.3
2017-Aug-17 18:00N 37°45' E 023°39'612.9
2017-Aug-17 17:31N 37°50' E 023°33'2 3.1
2017-Aug-17 17:01N 37°51' E 023°32'0 0.2
2017-Aug-17 16:25N 37°51' E 023°32'0 0.0
2017-Aug-17 15:58N 37°51' E 023°32'0 0.0
2017-Aug-17 15:28N 37°51' E 023°32'0 0.0
2017-Aug-17 14:53N 37°51' E 023°32'0 0.1
2017-Aug-17 14:28N 37°51' E 023°31'0 0.1
2017-Aug-17 13:58N 37°51' E 023°32'0 0.0
2017-Aug-17 13:30N 37°51' E 023°32'0 0.0
2017-Aug-17 12:59N 37°51' E 023°32'0 0.0
2017-Aug-17 12:25N 37°51' E 023°32'0 0.0
2017-Aug-17 11:59N 37°51' E 023°31'0 0.1
2017-Aug-17 11:30N 37°51' E 023°32'0 0.1
2017-Aug-17 10:58N 37°51' E 023°32'0 0.0
2017-Aug-17 10:30N 37°51' E 023°31'0 0.0
2017-Aug-17 09:59N 37°51' E 023°31'0 0.1
2017-Aug-17 09:26N 37°51' E 023°32'0 0.1
2017-Aug-17 08:59N 37°51' E 023°31'0 0.0
2017-Aug-17 08:30N 37°51' E 023°31'0 0.1
2017-Aug-17 08:00N 37°51' E 023°32'0 0.0
2017-Aug-17 07:29N 37°51' E 023°32'0 0.0
2017-Aug-17 06:59N 37°51' E 023°32'0 0.4
2017-Aug-17 06:31N 37°51' E 023°32'2 4.6
2017-Aug-17 06:01N 37°51' E 023°35'5 9.2
2017-Aug-17 05:31N 37°49' E 023°40'713.5
2017-Aug-17 05:01N 37°43' E 023°44'612.7
2017-Aug-17 04:31N 37°39' E 023°50'1013.4
2017-Aug-17 03:46N 37°37' E 024°02'413.6
2017-Aug-17 03:27N 37°38' E 024°08'914.4
2017-Aug-17 02:49N 37°43' E 024°17'  
2017-Aug-13 18:10N 41°30' E 029°05'0 1.1
2017-Aug-13 17:50N 41°30' E 029°04'0 1.0
2017-Aug-13 17:30N 41°30' E 029°04'2 4.8
2017-Aug-13 17:00N 41°29' E 029°06'4 6.9
2017-Aug-13 16:26N 41°27' E 029°11'1 1.1
2017-Aug-13 15:51N 41°28' E 029°10'0 1.1
2017-Aug-13 15:30N 41°28' E 029°10'1 1.1
2017-Aug-13 15:00N 41°28' E 029°09'1 1.0
2017-Aug-13 14:30N 41°28' E 029°09'0 1.0
2017-Aug-13 14:00N 41°28' E 029°08'0 0.8
2017-Aug-13 13:30N 41°28' E 029°07'0 0.7
2017-Aug-13 13:00N 41°29' E 029°07'1 0.2
2017-Aug-13 06:38N 41°30' E 029°07'0 0.8
2017-Aug-13 06:30N 41°30' E 029°07'1 0.8
2017-Aug-13 05:52N 41°30' E 029°07'0 0.8
2017-Aug-13 05:31N 41°30' E 029°07'4 0.7
2017-Aug-13 00:19N 41°33' E 029°11'0 1.0
2017-Aug-13 00:00N 41°33' E 029°11'1 0.8
2017-Aug-12 22:44N 41°33' E 029°09'0 0.7
2017-Aug-12 22:29N 41°33' E 029°09'1 0.5
2017-Aug-12 20:49N 41°33' E 029°08'1 0.4
2017-Aug-12 18:41N 41°32' E 029°08'0 0.5
2017-Aug-12 18:26N 41°32' E 029°08'0 0.6
2017-Aug-12 18:00N 41°32' E 029°08'4 7.3
2017-Aug-12 17:30N 41°30' E 029°04'1 1.7
2017-Aug-12 17:00N 41°29' E 029°03'0 0.4
2017-Aug-12 16:30N 41°29' E 029°04'0 0.5
2017-Aug-12 16:00N 41°29' E 029°04'0 0.5
2017-Aug-12 15:30N 41°29' E 029°04'13 2.9
2017-Aug-12 10:50N 41°28' E 029°22'2812.5
2017-Aug-12 08:35N 41°33' E 029°59'112.8
2017-Aug-12 08:30N 41°33' E 030°00'612.8
2017-Aug-12 08:00N 41°35' E 030°09'612.8
2017-Aug-12 07:30N 41°37' E 030°17'612.6
2017-Aug-12 07:00N 41°39' E 030°25'612.5
2017-Aug-12 06:30N 41°41' E 030°33'612.4
2017-Aug-12 06:00N 41°42' E 030°41'612.4
2017-Aug-12 05:30N 41°44' E 030°49'712.4
2017-Aug-12 04:58N 41°46' E 030°57'613.7
2017-Aug-12 04:30N 41°48' E 031°05'713.7
2017-Aug-12 04:00N 41°50' E 031°14'612.4
2017-Aug-12 03:30N 41°52' E 031°22'1812.4
2017-Aug-12 02:02N 41°57' E 031°45'312.3
2017-Aug-12 01:46N 41°58' E 031°50'312.3
2017-Aug-12 01:30N 41°59' E 031°54'612.2
2017-Aug-12 01:00N 42°01' E 032°02'712.2
2017-Aug-12 00:28N 42°03' E 032°10'1012.2
2017-Aug-11 23:36N 42°06' E 032°24'112.1
2017-Aug-11 23:30N 42°06' E 032°25'  

Dump ship's entire track history